Time;durP1;ratioP1;P1;durP2;ratioP2;P2;SDS_P1;SDS_P2;PMS_P1;PMS_P2;Temp;Humidity;BMP_temperature;BMP_pressure;BME280_temperature;BME280_humidity;BME280_pressure;Samples;Min_cycle;Max_cycle;Signal;HPM_P1;HPM_P2
2022/05/25 00:02:22;;;;;;;8.02;5.45;;;;;;;15.76;100.00;94834.84;5073236;27;20050;-65
2022/05/25 00:04:51;;;;;;;7.78;6.63;;;;;;;15.72;100.00;94833.78;5086324;27;20049;-65
2022/05/25 00:07:20;;;;;;;7.05;4.75;;;;;;;15.73;100.00;94832.72;5075212;27;20053;-65
2022/05/25 00:09:49;;;;;;;7.93;5.82;;;;;;;15.69;100.00;94836.94;5075174;27;20352;-68
2022/05/25 00:12:17;;;;;;;9.93;5.43;;;;;;;15.69;100.00;94839.56;5033398;27;20041;-67
2022/05/25 00:14:44;;;;;;;9.13;5.82;;;;;;;15.56;100.00;94824.34;5082230;27;20521;-68
2022/05/25 00:17:11;;;;;;;7.70;5.80;;;;;;;15.60;100.00;94835.88;5063776;27;20040;-68
2022/05/25 00:22:23;;;;;;;7.15;5.50;;;;;;;15.52;100.00;94839.00;5074330;27;20512;-68
2022/05/25 00:24:50;;;;;;;7.70;6.13;;;;;;;15.49;100.00;94835.84;5058438;27;20049;-68
2022/05/25 00:27:19;;;;;;;7.05;5.68;;;;;;;15.43;100.00;94836.91;5040100;27;20040;-68
2022/05/25 00:29:46;;;;;;;16.50;7.18;;;;;;;15.44;100.00;94830.59;5067576;27;20504;-68
2022/05/25 00:32:13;;;;;;;11.02;6.00;;;;;;;15.40;100.00;94836.66;5062622;27;20034;-68
2022/05/25 00:34:40;;;;;;;8.90;5.80;;;;;;;15.34;100.00;94830.59;5084650;27;20118;-68
2022/05/25 00:37:07;;;;;;;6.95;5.75;;;;;;;15.31;100.00;94831.13;5085822;27;20800;-68
2022/05/25 00:39:34;;;;;;;8.48;5.72;;;;;;;15.30;100.00;94826.91;5072378;27;20033;-68
2022/05/25 00:42:04;;;;;;;10.75;6.18;;;;;;;15.27;100.00;94822.19;5084397;27;20064;-68
2022/05/25 00:44:31;;;;;;;8.13;6.35;;;;;;;15.28;100.00;94823.75;5082532;27;20536;-68
2022/05/25 00:46:58;;;;;;;8.38;5.75;;;;;;;15.29;100.00;94825.34;5071736;27;20610;-68
2022/05/25 00:49:32;;;;;;;8.65;6.07;;;;;;;15.30;100.00;94826.91;5050865;27;20038;-68
2022/05/25 00:52:04;;;;;;;7.85;6.30;;;;;;;15.26;100.00;94828.47;5073378;27;20045;-68
2022/05/25 00:54:35;;;;;;;8.65;6.25;;;;;;;15.12;100.00;94814.28;5060089;27;20044;-69
2022/05/25 00:57:18;;;;;;;7.65;6.45;;;;;;;15.19;100.00;94835.81;5070603;27;20619;-68
2022/05/25 00:59:54;;;;;;;9.80;6.68;;;;;;;15.12;100.00;94836.06;5059331;27;20042;-67
2022/05/25 01:02:21;;;;;;;7.75;5.80;;;;;;;15.05;100.00;94825.84;5052628;27;20546;-68
2022/05/25 01:04:48;;;;;;;13.20;7.18;;;;;;;14.99;100.00;94816.34;5080373;27;20107;-68
2022/05/25 01:07:42;;;;;;;8.88;6.07;;;;;;;15.07;100.00;94828.97;5072290;27;20496;-68
2022/05/25 01:10:21;;;;;;;8.32;6.15;;;;;;;15.08;100.00;94835.78;5065508;27;20519;-68
2022/05/25 01:13:00;;;;;;;8.57;6.45;;;;;;;15.00;100.00;94825.81;5065233;27;20664;-68
2022/05/25 01:15:56;;;;;;;9.18;6.20;;;;;;;15.00;100.00;94833.69;5076967;27;20045;-68
2022/05/25 01:18:33;;;;;;;11.00;6.75;;;;;;;15.00;100.00;94833.69;5059419;27;20046;-68
2022/05/25 01:21:00;;;;;;;7.60;6.45;;;;;;;14.98;100.00;94841.03;5046480;27;20102;-68
2022/05/25 01:23:39;;;;;;;8.70;6.40;;;;;;;15.01;100.00;94845.72;5055055;27;20458;-68
2022/05/25 01:26:12;;;;;;;10.02;6.78;;;;;;;14.98;100.00;94846.25;5081901;27;21216;-68
2022/05/25 01:29:07;;;;;;;9.55;6.13;;;;;;;14.99;100.00;94850.44;5068154;27;20039;-68
2022/05/25 01:31:43;;;;;;;;;;;;;;;14.97;100.00;94844.69;5079979;27;20423;-68
2022/05/25 01:34:45;;;;;;;10.93;6.88;;;;;;;14.94;100.00;94839.94;5054402;27;20019;-67
2022/05/25 01:37:23;;;;;;;8.75;6.80;;;;;;;14.91;100.00;94845.72;5053722;27;20061;-68
2022/05/25 01:40:00;;;;;;;11.15;6.78;;;;;;;14.92;100.00;94834.16;5036255;27;20041;-68
2022/05/25 01:42:33;;;;;;;9.15;6.50;;;;;;;14.90;100.00;94833.63;5062426;27;20056;-68
2022/05/25 01:45:05;;;;;;;9.90;7.07;;;;;;;14.88;100.00;94844.38;5055359;27;20498;-68
2022/05/25 01:47:35;;;;;;;8.65;7.07;;;;;;;14.96;100.00;94848.34;5035101;27;20412;-68
2022/05/25 01:50:11;;;;;;;8.48;6.65;;;;;;;14.95;100.00;94851.25;5068592;27;20640;-68
2022/05/25 01:52:45;;;;;;;8.38;6.72;;;;;;;14.88;100.00;94846.22;5037887;27;20072;-68
2022/05/25 01:55:22;;;;;;;10.27;6.85;;;;;;;14.92;100.00;94852.53;5038967;27;20037;-68
2022/05/25 01:57:54;;;;;;;10.38;7.00;;;;;;;14.92;100.00;94847.28;5082266;27;20038;-68
2022/05/25 02:00:36;;;;;;;9.82;7.68;;;;;;;14.93;100.00;94854.13;5055241;27;20057;-68
2022/05/25 02:06:28;;;;;;;8.18;7.07;;;;;;;14.98;100.00;94866.44;5085798;27;20040;-68
2022/05/25 02:09:13;;;;;;;10.43;7.03;;;;;;;14.92;100.00;94868.25;5070683;27;20432;-68
2022/05/25 02:11:44;;;;;;;10.35;6.70;;;;;;;14.89;100.00;94863.50;5077414;27;20061;-68
2022/05/25 02:14:49;;;;;;;12.15;6.80;;;;;;;14.82;100.00;94870.81;5048209;27;20073;-68
2022/05/25 02:17:42;;;;;;;11.00;7.30;;;;;;;14.84;100.00;94876.63;5062611;27;20132;-68
2022/05/25 02:20:20;;;;;;;7.85;6.80;;;;;;;14.74;100.00;94866.09;5081076;27;20053;-67
2022/05/25 02:22:56;;;;;;;13.15;6.32;;;;;;;14.76;100.00;94877.88;5049095;27;20045;-67
2022/05/25 02:25:33;;;;;;;9.20;6.20;;;;;;;14.63;100.00;94876.53;5073277;27;21061;-67
2022/05/25 02:28:20;;;;;;;8.32;7.47;;;;;;;14.64;100.00;94878.13;5065292;27;20461;-67
2022/05/25 02:30:53;;;;;;;9.50;6.88;;;;;;;14.62;100.00;94885.44;5073617;27;20048;-67
2022/05/25 02:33:27;;;;;;;9.57;7.10;;;;;;;14.59;100.00;94880.69;5046531;27;20045;-67
2022/05/25 02:35:57;;;;;;;9.85;6.90;;;;;;;14.42;100.00;94870.38;5076805;27;20462;-67
2022/05/25 02:38:24;;;;;;;10.38;6.65;;;;;;;14.40;100.00;94892.63;5075137;27;20046;-67
2022/05/25 02:41:04;;;;;;;15.00;8.40;;;;;;;14.31;100.00;94900.97;5078291;27;20423;-67
2022/05/25 02:43:30;;;;;;;10.13;8.00;;;;;;;14.18;100.00;94896.13;5036075;27;20045;-67
2022/05/25 02:45:58;;;;;;;10.27;7.13;;;;;;;14.14;100.00;94895.06;5060513;27;20047;-67
2022/05/25 02:48:25;;;;;;;10.10;7.65;;;;;;;14.17;100.00;94905.06;5091676;27;20055;-67
2022/05/25 02:50:51;;;;;;;11.00;7.50;;;;;;;14.14;100.00;94913.41;5077318;27;20040;-67
2022/05/25 02:53:20;;;;;;;10.02;7.57;;;;;;;14.11;100.00;94916.53;5067303;27;20640;-67
2022/05/25 02:55:46;;;;;;;9.50;6.85;;;;;;;14.04;100.00;94910.69;5041981;27;20044;-67
2022/05/25 02:58:13;;;;;;;9.73;7.10;;;;;;;14.03;100.00;94917.00;5036315;27;20048;-67
2022/05/25 03:00:40;;;;;;;13.20;7.65;;;;;;;14.03;100.00;94924.84;5036079;27;20052;-68
2022/05/25 03:03:07;;;;;;;14.77;7.82;;;;;;;13.94;100.00;94917.44;5041938;27;20056;-67
2022/05/25 03:05:34;;;;;;;8.73;6.70;;;;;;;13.92;100.00;94919.53;5065343;27;20065;-67
2022/05/25 03:08:01;;;;;;;8.93;6.55;;;;;;;13.85;100.00;94926.78;5079193;27;20470;-67
2022/05/25 03:10:27;;;;;;;11.85;7.50;;;;;;;13.80;100.00;94926.75;5055009;27;20040;-67
2022/05/25 03:12:54;;;;;;;10.15;7.32;;;;;;;13.79;100.00;94925.16;5084133;27;20045;-67
2022/05/25 03:15:21;;;;;;;13.15;7.57;;;;;;;13.77;100.00;94922.00;5071151;27;20048;-67
2022/05/25 03:17:48;;;;;;;13.20;8.30;;;;;;;13.80;100.00;94931.97;5022443;27;20044;-67
2022/05/25 03:20:16;;;;;;;10.40;7.80;;;;;;;13.79;100.00;94940.84;5083141;27;20055;-67
2022/05/25 03:22:47;;;;;;;9.57;7.47;;;;;;;13.77;100.00;94937.69;5078197;27;20035;-67
2022/05/25 03:25:14;;;;;;;11.52;7.90;;;;;;;13.80;100.00;94942.44;5057194;27;20051;-67
2022/05/25 03:27:41;;;;;;;17.52;9.38;;;;;;;13.78;100.00;94944.53;5051187;27;20121;-67
2022/05/25 03:30:08;;;;;;;11.80;9.15;;;;;;;13.80;100.00;94952.91;5075387;27;20517;-67
2022/05/25 03:32:35;;;;;;;17.40;10.38;;;;;;;13.84;100.00;94956.63;5075501;27;20498;-67
2022/05/25 03:35:04;;;;;;;20.13;11.18;;;;;;;13.91;100.00;94959.03;5064777;27;20155;-67
2022/05/25 03:37:31;;;;;;;18.70;11.10;;;;;;;14.01;100.00;94963.56;5026337;27;20037;-67
2022/05/25 03:39:57;;;;;;;16.60;10.80;;;;;;;14.10;100.00;94967.34;5081958;27;20035;-67
2022/05/25 03:42:24;;;;;;;17.60;11.35;;;;;;;14.17;100.00;94962.69;5066223;27;20041;-67
2022/05/25 03:44:51;;;;;;;16.63;11.50;;;;;;;14.23;100.00;94961.66;5062448;27;20049;-67
2022/05/25 03:47:18;;;;;;;17.48;10.98;;;;;;;14.28;100.00;94964.34;5085208;27;20044;-67
2022/05/25 03:49:46;;;;;;;18.15;11.55;;;;;;;14.31;100.00;94963.84;5079713;27;20533;-67
2022/05/25 03:52:18;;;;;;;19.20;11.75;;;;;;;14.31;100.00;94966.47;5070110;27;20064;-67
2022/05/25 03:54:45;;;;;;;18.08;11.55;;;;;;;14.40;100.00;94971.22;5035575;27;20041;-67
2022/05/25 03:57:12;;;;;;;14.93;10.38;;;;;;;14.41;100.00;94983.28;5037382;27;20097;-68
2022/05/25 03:59:39;;;;;;;15.90;10.90;;;;;;;14.43;100.00;94975.97;5078858;27;20519;-68
2022/05/25 04:02:06;;;;;;;19.33;11.75;;;;;;;14.55;100.00;94976.59;5034625;27;20063;-66
2022/05/25 04:04:33;;;;;;;22.83;12.15;;;;;;;14.60;100.00;94984.47;5046707;27;20127;-66
2022/05/25 04:07:00;;;;;;;22.15;13.07;;;;;;;14.72;100.00;94990.34;5048168;27;20506;-66
2022/05/25 04:09:27;;;;;;;22.90;13.98;;;;;;;14.82;100.00;94983.56;5039369;27;20041;-66
2022/05/25 04:11:54;;;;;;;22.27;14.15;;;;;;;14.89;100.00;94987.56;5033201;27;20052;-67
2022/05/25 04:14:21;;;;;;;24.40;12.57;;;;;;;14.89;100.00;94973.66;5054396;27;20052;-66
2022/05/25 04:16:48;;;;;;;24.38;14.07;;;;;;;15.09;100.00;94984.25;5035690;27;20397;-66
2022/05/25 04:19:15;;;;;;;22.67;13.50;;;;;;;15.19;100.00;94987.97;5051807;27;20108;-67
2022/05/25 04:21:43;;;;;;;26.55;15.95;;;;;;;15.22;100.00;94990.09;5050330;27;20037;-65
2022/05/25 04:24:12;;;;;;;24.73;14.50;;;;;;;15.35;100.00;94986.22;5048819;27;20057;-67
2022/05/25 04:26:40;;;;;;;26.60;14.70;;;;;;;15.42;100.00;94987.53;5067224;27;20135;-66
2022/05/25 04:29:07;;;;;;;34.03;14.55;;;;;;;15.48;100.00;94986.53;5060041;27;20053;-71
2022/05/25 04:31:34;;;;;;;23.63;14.30;;;;;;;15.52;100.00;94980.75;5047457;27;20052;-74
2022/05/25 04:34:01;;;;;;;26.50;14.60;;;;;;;15.58;100.00;94991.00;5044593;27;20109;-73
2022/05/25 04:36:28;;;;;;;28.58;15.85;;;;;;;15.63;100.00;94982.38;5031924;27;20040;-73
2022/05/25 04:38:55;;;;;;;23.85;13.77;;;;;;;15.71;100.00;94994.97;5036319;27;20068;-66
2022/05/25 04:41:22;;;;;;;22.27;12.77;;;;;;;15.80;100.00;94993.47;5042909;27;20057;-66
2022/05/25 04:43:48;;;;;;;25.45;13.75;;;;;;;15.83;100.00;94987.69;5060339;27;20064;-66
2022/05/25 04:46:15;;;;;;;21.30;12.98;;;;;;;15.95;100.00;94989.28;5052841;27;20041;-66
2022/05/25 04:48:44;;;;;;;22.20;12.20;;;;;;;16.08;100.00;94994.03;5051238;27;20045;-66
2022/05/25 04:51:12;;;;;;;23.38;13.65;;;;;;;16.17;100.00;94997.72;5063425;27;20068;-66
2022/05/25 04:53:40;;;;;;;20.05;12.35;;;;;;;16.12;100.00;94994.31;5079893;27;20038;-66
2022/05/25 04:58:52;;;;;;;21.00;12.10;;;;;;;16.14;100.00;95003.50;5052170;27;20048;-66
2022/05/25 05:01:19;;;;;;;22.65;11.88;;;;;;;16.25;100.00;95002.44;5056450;27;20035;-66
2022/05/25 05:03:47;;;;;;;13.88;10.38;;;;;;;16.36;100.00;95005.09;5034304;27;20049;-66
2022/05/25 05:06:15;;;;;;;14.82;9.68;;;;;;;16.50;100.00;95006.13;5038349;27;20037;-66
2022/05/25 05:08:42;;;;;;;17.73;10.43;;;;;;;16.60;100.00;95002.72;5035931;27;20041;-65
2022/05/25 05:11:14;;;;;;;18.58;10.10;;;;;;;16.68;100.00;95002.19;5032321;27;20041;-66
2022/05/25 05:13:41;;;;;;;22.27;11.38;;;;;;;16.77;100.00;94999.81;5035343;27;20068;-67
2022/05/25 05:16:11;;;;;;;14.15;9.38;;;;;;;16.91;100.00;95008.75;5038476;27;20053;-66
2022/05/25 05:18:38;;;;;;;17.23;10.55;;;;;;;17.02;100.00;95006.13;5034908;27;20049;-66
2022/05/25 05:21:17;;;;;;;21.33;11.52;;;;;;;17.10;100.00;95000.28;5034212;27;20045;-66
2022/05/25 05:23:44;;;;;;;20.83;11.45;;;;;;;17.17;100.00;95003.44;5038301;27;20052;-66
2022/05/25 05:26:11;;;;;;;21.75;11.18;;;;;;;17.29;100.00;95006.56;5034955;27;20259;-66
2022/05/25 05:28:40;;;;;;;19.08;11.52;;;;;;;17.39;100.00;95006.53;5043294;27;20049;-66
2022/05/25 05:31:09;;;;;;;19.42;11.90;;;;;;;17.41;100.00;95008.09;5041490;27;20051;-66
2022/05/25 05:33:36;;;;;;;20.30;11.85;;;;;;;17.50;100.00;95006.47;5042733;27;20102;-66
2022/05/25 05:36:06;;;;;;;16.52;10.52;;;;;;;17.59;100.00;95015.38;5056067;27;20060;-66
2022/05/25 05:38:40;;;;;;;18.42;10.38;;;;;;;17.74;100.00;95007.41;5038753;27;20545;-66
2022/05/25 05:41:07;;;;;;;18.15;10.55;;;;;;;17.90;100.00;95010.00;5039381;27;20049;-66
2022/05/25 05:43:34;;;;;;;16.23;10.00;;;;;;;18.07;100.00;95017.53;5039009;27;20037;-66
2022/05/25 05:46:01;;;;;;;15.77;9.60;;;;;;;18.19;100.00;95027.75;5043242;27;20065;-66
2022/05/25 05:48:30;;;;;;;19.90;12.23;;;;;;;18.27;100.00;95021.88;5038478;27;20041;-66
2022/05/25 05:50:57;;;;;;;20.73;10.98;;;;;;;18.39;100.00;95024.97;5054304;27;20171;-66
2022/05/25 05:53:26;;;;;;;24.48;10.52;;;;;;;18.52;100.00;95026.97;5041619;27;20067;-66
2022/05/25 05:55:54;;;;;;;15.95;9.63;;;;;;;18.52;100.00;95026.97;5040662;27;20044;-66
2022/05/25 05:58:20;;;;;;;19.77;11.07;;;;;;;18.62;100.00;95033.22;5041668;27;20060;-66
2022/05/25 06:00:47;;;;;;;21.42;11.25;;;;;;;18.76;100.00;95042.06;5039315;27;20338;-66
2022/05/25 06:03:15;;;;;;;19.40;10.15;;;;;;;18.94;100.00;95042.50;5094763;27;20046;-66
2022/05/25 06:05:43;;;;;;;21.63;11.95;;;;;;;19.07;100.00;95041.84;5088239;27;20051;-66
2022/05/25 06:08:14;;;;;;;18.90;11.57;;;;;;;19.06;100.00;95048.19;5086696;27;20045;-66
2022/05/25 06:10:42;;;;;;;26.58;12.68;;;;;;;19.13;100.00;95046.00;5049289;27;20045;-66
2022/05/25 06:13:09;;;;;;;18.63;11.30;;;;;;;19.22;100.00;95039.03;5076709;27;20048;-66
2022/05/25 06:21:09;;;;;;;17.55;10.02;;;;;;;19.59;99.16;95037.59;5067266;27;20139;-66
2022/05/25 06:23:36;;;;;;;14.85;9.90;;;;;;;19.71;97.94;95044.31;5065058;27;20556;-66
2022/05/25 06:26:04;;;;;;;22.45;9.05;;;;;;;19.80;97.57;95047.94;5067282;27;20050;-66
2022/05/25 06:28:31;;;;;;;13.07;9.00;;;;;;;19.89;96.51;95040.94;5062647;27;20156;-66
2022/05/25 06:30:58;;;;;;;12.98;9.27;;;;;;;19.95;95.38;95039.81;5059242;27;20049;-67
2022/05/25 06:33:25;;;;;;;14.25;8.50;;;;;;;19.99;94.88;95045.31;5050657;27;20080;-66
2022/05/25 06:35:52;;;;;;;14.13;8.75;;;;;;;20.19;94.18;95044.25;5049806;27;20056;-66
2022/05/25 06:38:19;;;;;;;13.95;8.23;;;;;;;20.39;93.82;95049.22;5055391;27;20673;-66
2022/05/25 06:40:46;;;;;;;14.15;8.90;;;;;;;20.56;93.48;95053.22;5052504;27;20424;-65
2022/05/25 06:43:13;;;;;;;13.35;9.07;;;;;;;20.72;93.66;95051.91;5072528;27;20037;-66
2022/05/25 06:45:40;;;;;;;15.25;9.68;;;;;;;20.63;91.93;95027.19;5097260;27;21189;-73
2022/05/25 06:48:07;;;;;;;14.90;9.07;;;;;;;20.87;91.75;95052.75;5079071;27;20072;-73
2022/05/25 06:50:36;;;;;;;14.82;9.07;;;;;;;20.93;91.48;95046.31;5077060;27;20056;-75
2022/05/25 06:53:03;;;;;;;13.93;8.93;;;;;;;20.98;90.77;95038.28;5054190;27;20066;-74
2022/05/25 06:55:30;;;;;;;14.18;8.63;;;;;;;21.14;91.17;95050.16;5080695;27;20051;-73
2022/05/25 06:57:58;;;;;;;11.80;8.38;;;;;;;21.38;89.19;95047.34;5065713;27;20057;-72
2022/05/25 07:00:25;;;;;;;13.70;9.52;;;;;;;21.67;88.15;95042.88;5050586;27;20057;-70
2022/05/25 07:02:52;;;;;;;13.25;8.50;;;;;;;21.67;87.48;95064.06;5070068;27;20094;-72
2022/05/25 07:05:19;;;;;;;11.95;8.15;;;;;;;21.71;86.70;95054.44;5070366;27;20042;-71
2022/05/25 07:07:46;;;;;;;15.25;9.07;;;;;;;21.67;87.05;95050.81;5055177;27;20417;-70
2022/05/25 07:10:13;;;;;;;12.00;7.95;;;;;;;21.84;86.73;95053.66;5058173;27;20152;-71
2022/05/25 07:12:40;;;;;;;12.63;8.63;;;;;;;22.06;86.01;95060.09;5051332;27;20093;-71
2022/05/25 07:15:08;;;;;;;15.82;10.15;;;;;;;22.13;85.64;95065.78;5039934;27;20298;-71
2022/05/25 07:17:35;;;;;;;13.82;9.23;;;;;;;22.30;85.16;95071.25;5033468;27;20045;-69
2022/05/25 07:20:04;;;;;;;14.23;8.73;;;;;;;22.16;84.74;95070.47;5038716;27;20053;-69
2022/05/25 07:22:31;;;;;;;16.38;10.07;;;;;;;22.31;84.53;95062.22;5087725;27;20039;-69
2022/05/25 07:24:58;;;;;;;16.65;9.32;;;;;;;22.62;84.45;95072.13;5053863;27;20076;-70
2022/05/25 07:27:24;;;;;;;14.50;9.13;;;;;;;22.83;82.46;95058.38;5041482;27;20049;-71
2022/05/25 07:29:53;;;;;;;15.55;8.85;;;;;;;22.93;81.40;95055.47;5038351;27;20037;-69
2022/05/25 07:32:22;;;;;;;13.05;8.35;;;;;;;23.01;80.25;95062.72;5044578;27;20029;-70
2022/05/25 07:35:00;;;;;;;15.32;8.77;;;;;;;23.11;80.06;95076.84;5036641;27;20041;-70
2022/05/25 07:37:33;;;;;;;15.45;8.48;;;;;;;23.09;79.63;95069.97;5135207;27;20055;-70
2022/05/25 07:40:05;;;;;;;13.38;9.23;;;;;;;23.20;79.00;95072.38;5055024;27;20635;-70
2022/05/25 07:42:33;;;;;;;14.88;8.55;;;;;;;23.41;78.20;95076.06;5049085;27;20118;-69
2022/05/25 07:45:03;;;;;;;16.00;9.00;;;;;;;23.33;77.94;95076.78;5029897;27;20050;-70
2022/05/25 07:47:32;;;;;;;11.55;7.40;;;;;;;23.51;77.56;95075.00;5033780;27;20890;-70
2022/05/25 07:50:00;;;;;;;12.80;8.38;;;;;;;23.79;75.70;95064.94;5037187;27;20424;-70
2022/05/25 07:52:30;;;;;;;13.00;8.60;;;;;;;23.91;75.22;95063.56;5084067;27;20042;-70
2022/05/25 07:54:58;;;;;;;12.68;8.48;;;;;;;24.22;75.28;95056.28;5034152;27;20056;-69
2022/05/25 07:57:25;;;;;;;11.40;7.50;;;;;;;24.46;74.70;95048.91;5068579;27;20044;-66
2022/05/25 07:59:52;;;;;;;14.27;9.95;;;;;;;24.59;70.49;95059.41;5067611;27;20154;-69
2022/05/25 08:07:54;;;;;;;13.50;9.30;;;;;;;24.68;68.85;95061.31;5072327;27;20151;-66
2022/05/25 08:10:24;;;;;;;15.13;8.65;;;;;;;24.89;69.82;95072.88;5079709;27;20573;-65
2022/05/25 08:12:55;;;;;;;17.05;8.50;;;;;;;25.17;67.25;95062.63;5074707;27;20527;-65
2022/05/25 08:15:23;;;;;;;11.90;8.38;;;;;;;25.25;64.32;95062.94;5069352;27;20045;-66
2022/05/25 08:17:50;;;;;;;11.98;8.48;;;;;;;25.31;66.20;95062.44;5061410;27;20037;-66
2022/05/25 08:20:19;;;;;;;13.50;8.18;;;;;;;25.45;64.67;95061.47;5034486;27;20597;-65
2022/05/25 08:22:46;;;;;;;13.25;9.27;;;;;;;25.65;63.91;95055.41;5088813;27;20748;-66
2022/05/25 08:25:15;;;;;;;17.58;10.55;;;;;;;25.65;64.99;95055.41;5077847;27;20121;-67
2022/05/25 08:27:42;;;;;;;17.00;9.90;;;;;;;25.72;63.46;95061.00;5066275;27;20044;-67
2022/05/25 08:30:15;;;;;;;16.95;8.77;;;;;;;25.92;62.98;95069.38;5068628;27;20045;-64
2022/05/25 08:32:42;;;;;;;;;;;;;;;26.05;60.82;95076.41;5065927;27;20125;-66
2022/05/25 08:35:11;;;;;;;14.82;9.35;;;;;;;26.19;59.48;95078.06;5063420;27;20440;-66
2022/05/25 08:37:38;;;;;;;18.60;8.10;;;;;;;26.34;58.72;95069.44;5072701;27;20045;-66
2022/05/25 08:40:06;;;;;;;16.05;9.07;;;;;;;26.25;59.74;95077.53;5074902;27;20039;-66
2022/05/25 08:42:51;;;;;;;12.63;8.10;;;;;;;26.25;58.74;95071.41;5084891;27;20035;-66
2022/05/25 08:45:22;;;;;;;19.85;8.50;;;;;;;26.44;60.76;95069.06;5077581;27;20513;-66
2022/05/25 08:47:53;;;;;;;12.15;7.63;;;;;;;26.92;58.52;95076.84;5064946;27;20045;-66
2022/05/25 08:50:20;;;;;;;14.50;8.10;;;;;;;27.08;54.68;95070.56;5081449;27;20042;-67
2022/05/25 08:52:47;;;;;;;17.15;8.95;;;;;;;27.29;56.14;95090.34;5069417;27;20082;-67
2022/05/25 08:55:42;;;;;;;13.07;7.68;;;;;;;27.58;54.10;95092.84;5062501;27;20505;-67
2022/05/25 08:58:11;;;;;;;13.70;8.65;;;;;;;27.57;54.32;95085.94;5046552;27;20048;-67
2022/05/25 09:00:41;;;;;;;11.25;7.82;;;;;;;27.78;52.67;95085.81;5040555;27;20056;-67
2022/05/25 09:03:15;;;;;;;12.18;8.13;;;;;;;27.99;51.65;95091.09;5081541;27;20094;-67
2022/05/25 09:05:50;;;;;;;;;;;;;;;27.96;49.58;95091.75;5072436;27;20450;-67
2022/05/25 09:08:21;;;;;;;16.23;7.55;;;;;;;27.54;50.56;95089.28;5071579;27;20281;-66
2022/05/25 09:11:15;;;;;;;17.92;7.43;;;;;;;27.59;51.05;95082.94;5042820;27;20171;-66
2022/05/25 09:14:16;;;;;;;13.53;7.07;;;;;;;27.53;51.06;95079.72;5077163;27;20595;-67
2022/05/25 09:16:46;;;;;;;15.60;7.95;;;;;;;27.33;51.33;95069.84;5083486;27;21078;-66
2022/05/25 09:19:17;;;;;;;10.25;7.00;;;;;;;27.41;50.71;95077.00;5080277;27;20097;-66
2022/05/25 09:21:49;;;;;;;13.80;7.88;;;;;;;27.52;51.12;95078.13;5037552;27;20109;-65
2022/05/25 09:24:21;;;;;;;9.98;7.20;;;;;;;27.59;50.29;95089.06;5054697;27;20106;-65
2022/05/25 09:26:49;;;;;;;14.00;7.95;;;;;;;27.96;50.69;95090.97;5039118;27;20131;-65
2022/05/25 09:29:17;;;;;;;10.52;6.75;;;;;;;28.38;47.48;95094.16;5042784;27;20473;-67
2022/05/25 09:31:59;;;;;;;8.45;6.43;;;;;;;28.64;48.26;95093.00;5040957;27;20033;-68
2022/05/25 09:34:39;;;;;;;10.73;7.25;;;;;;;28.77;46.71;95097.22;5050865;27;20431;-68
2022/05/25 09:37:44;;;;;;;11.80;5.68;;;;;;;28.63;45.69;95102.19;5042156;27;20059;-68
2022/05/25 09:40:19;;;;;;;11.77;6.20;;;;;;;28.84;45.62;95087.81;5043050;27;20037;-68
2022/05/25 09:42:52;;;;;;;10.00;6.22;;;;;;;28.96;43.96;95085.06;5054320;27;20033;-67
2022/05/25 09:45:20;;;;;;;14.18;7.15;;;;;;;28.84;45.07;95085.88;5039575;27;20523;-68
2022/05/25 09:47:48;;;;;;;12.98;6.68;;;;;;;29.01;44.86;95079.47;5040330;27;20902;-67
2022/05/25 09:50:36;;;;;;;10.23;5.90;;;;;;;28.99;44.02;95079.00;5043604;27;20041;-68
2022/05/25 09:53:09;;;;;;;10.65;6.18;;;;;;;29.09;43.52;95075.81;5042698;27;20053;-68
2022/05/25 09:55:52;;;;;;;9.90;6.45;;;;;;;29.51;44.48;95075.41;5048160;27;20052;-69
2022/05/25 09:58:49;;;;;;;13.60;6.82;;;;;;;29.65;42.05;95068.81;5082346;27;20066;-68
2022/05/25 10:01:32;;;;;;;12.50;6.68;;;;;;;29.87;42.37;95059.34;5058547;27;20044;-67
2022/05/25 10:04:01;;;;;;;10.63;6.50;;;;;;;29.92;41.21;95054.50;5053313;27;20465;-71
2022/05/25 10:06:44;;;;;;;12.27;5.93;;;;;;;30.13;40.50;95071.44;5079760;27;20066;-73
2022/05/25 10:09:24;;;;;;;9.43;5.70;;;;;;;30.37;40.14;95059.69;5059766;27;20043;-73
2022/05/25 10:11:53;;;;;;;10.27;6.55;;;;;;;30.15;40.81;95061.91;5051514;27;20045;-75
2022/05/25 10:14:32;;;;;;;10.82;6.32;;;;;;;30.20;40.62;95050.91;5085736;27;20141;-73
2022/05/25 10:17:11;;;;;;;12.68;6.05;;;;;;;30.72;40.10;95042.72;5044657;27;20431;-75
2022/05/25 10:19:48;;;;;;;10.93;6.18;;;;;;;30.99;38.07;95052.50;5036378;27;20045;-72
2022/05/25 10:22:32;;;;;;;8.30;5.07;;;;;;;31.15;38.18;95054.28;5073777;27;20041;-69
2022/05/25 10:25:07;;;;;;;8.32;5.22;;;;;;;31.13;36.86;95040.41;5068378;27;20068;-67
2022/05/25 10:27:39;;;;;;;10.63;5.90;;;;;;;30.66;37.22;95040.31;5070960;27;20255;-67
2022/05/25 10:36:52;;;;;;;7.28;4.88;;;;;;;30.78;37.09;95052.84;5059874;27;20057;-67
2022/05/25 10:39:18;;;;;;;7.15;4.07;;;;;;;30.98;36.80;95056.31;5075299;27;20061;-66
2022/05/25 10:42:01;;;;;;;9.82;5.25;;;;;;;31.34;35.59;95051.56;5079104;27;20038;-66
2022/05/25 10:44:35;;;;;;;10.60;4.93;;;;;;;31.61;35.42;95035.47;5060893;27;20046;-66
2022/05/25 10:47:02;;;;;;;8.93;4.32;;;;;;;31.89;35.26;95042.41;5070462;27;20076;-66
2022/05/25 10:49:42;;;;;;;6.05;3.88;;;;;;;31.75;33.75;95033.00;5067222;27;20416;-66
2022/05/25 10:52:37;;;;;;;8.75;4.30;;;;;;;31.98;33.14;95029.47;5049574;27;20043;-66
2022/05/25 10:55:05;;;;;;;12.30;4.75;;;;;;;31.77;33.78;95019.94;5081832;27;20039;-68
2022/05/25 10:57:36;;;;;;;15.90;5.45;;;;;;;31.69;33.55;95023.66;5038367;27;20505;-67
2022/05/25 11:00:21;;;;;;;10.57;4.75;;;;;;;32.06;33.93;95025.75;5064729;27;20439;-67
2022/05/25 11:03:06;;;;;;;11.32;5.53;;;;;;;32.03;32.35;95021.06;5067924;27;20066;-67
2022/05/25 11:06:14;;;;;;;14.27;5.10;;;;;;;31.72;33.71;95027.56;5063789;27;20051;-75
2022/05/25 11:08:52;;;;;;;13.93;5.35;;;;;;;32.00;33.24;95016.44;5025375;27;20515;-75
2022/05/25 11:11:43;;;;;;;12.90;4.82;;;;;;;32.16;32.12;95019.75;5121775;27;20701;-75
2022/05/25 11:14:13;;;;;;;7.15;4.38;;;;;;;32.44;32.81;95007.75;5046033;27;20359;-74
2022/05/25 11:16:40;;;;;;;8.85;5.20;;;;;;;32.35;32.28;95004.56;5038361;27;20452;-75
2022/05/25 11:19:38;;;;;;;10.43;4.72;;;;;;;32.55;31.58;95014.03;5038116;27;20041;-75
2022/05/25 11:22:29;;;;;;;11.50;5.03;;;;;;;32.66;31.51;95008.78;5040222;27;20044;-75
2022/05/25 11:25:16;;;;;;;8.55;5.18;;;;;;;32.78;31.98;95007.78;5065205;27;20117;-74
2022/05/25 11:28:11;;;;;;;10.57;5.60;;;;;;;32.76;32.63;94993.88;5040108;27;20032;-75
2022/05/25 11:30:53;;;;;;;9.85;5.22;;;;;;;33.10;31.06;95010.03;5037074;27;20040;-74
2022/05/25 11:33:34;;;;;;;15.65;5.63;;;;;;;33.33;31.23;95007.94;5035893;27;20048;-74
2022/05/25 11:36:47;;;;;;;9.75;5.80;;;;;;;33.49;30.06;95004.97;5078797;27;20042;-74
2022/05/25 11:39:14;;;;;;;;;;;;;;;33.84;29.45;95000.97;5036213;27;20045;-75
2022/05/25 11:42:04;;;;;;;8.40;4.47;;;;;;;33.91;27.94;95008.34;5041701;27;19931;-75
2022/05/25 11:44:52;;;;;;;9.35;4.45;;;;;;;34.66;28.11;95002.50;5068300;27;20044;-74
2022/05/25 11:47:36;;;;;;;8.55;4.18;;;;;;;34.15;27.70;95001.53;5038259;27;20128;-75
2022/05/25 11:50:43;;;;;;;7.95;4.60;;;;;;;34.52;27.91;94997.06;5146149;27;20585;-74
2022/05/25 11:53:35;;;;;;;12.88;4.63;;;;;;;34.94;26.53;95001.06;5082306;27;20128;-75
2022/05/25 11:56:33;;;;;;;8.30;4.60;;;;;;;35.56;26.47;94992.59;5060908;27;20120;-75
2022/05/25 11:59:18;;;;;;;14.27;4.35;;;;;;;35.47;26.08;94994.91;5044840;27;20056;-75
2022/05/25 12:01:57;;;;;;;10.68;4.45;;;;;;;35.02;27.17;94991.78;5045757;27;20045;-75
2022/05/25 12:05:09;;;;;;;14.38;4.82;;;;;;;34.69;26.11;94996.38;5037332;27;20122;-76
2022/05/25 12:08:10;;;;;;;7.72;3.88;;;;;;;34.40;24.98;94990.84;5138592;27;20037;-74
2022/05/25 12:10:40;;;;;;;14.32;3.95;;;;;;;34.63;23.75;94970.84;5042828;27;20048;-74
2022/05/25 12:13:21;;;;;;;10.13;4.35;;;;;;;35.22;23.57;94974.06;5068178;27;20508;-74
2022/05/25 12:15:54;;;;;;;17.50;4.25;;;;;;;35.51;23.90;94968.63;5046508;27;20040;-75